Airfield :
LOGIN :

Register | Disclaimer

   EN    FR    IT 

 










Legend :    VFR   Marginal VFR   IFR   Intensive IFR   Very Intensive IFR
Visi :
Ceiling :
>= 8 km
>= 3000ft
5 to 8 km
1000 to 3000 ft
1500m to 5 km
500 to 1000 ft
800 to 1500m
200 to 500 ft
< 800m
< 200 ft
Symbols :   Thunderstorms  Fog  Heavy snow  Heavy precipitations  Wind > 20 kt
SIGMETs :     Misc.  Thunderstorms  Icing  Turbulence  Mountain Waves  Volcanic Ashes







- Airport Elevation : 297 ft
- IATA code : ODB


LEBA - Córdoba

CURRENT METAR :
  • 231600Z VRB02KT 9999 FEW045 24/15 Q1023

EXPIRED METARs :
  • 231530Z VRB01KT 9999 FEW040 24/15 Q1023
  • 231500Z 29001KT 9999 FEW040 25/15 Q1023
  • 231430Z 05002KT 9999 FEW040 25/15 Q1023
  • 231400Z 03003KT 9999 FEW040 24/15 Q1023
  • 231330Z VRB02KT 9999 FEW035 24/16 Q1023

TAF TAF LEBA
Valid from the 23 at 15:00 until the 24 at 00:00 UTC


231400Z 2315/2324 23004KT 9999 FEW040
PROB30
TEMPO 2316/2318 4000 SHRA SCT035TCU
No reported NOTAMs for that airfield.



MET'MAP, your aeronautical weather chart ! - Copyright ORBIFLY December 2007 - Disclaimer

ORBIFLY MET'MAP TEAM :

Programming & Development : Alexandra Zaïnal
Concept & Development : Baudouin d'Aumeries
Co-Development & Prog : Marc-Olivier Méhu
Technical & hardware support : Manuel Goepfert

Contact : metmap@orbifly.com




SOURCES & CREDITS :

   NOAA